createdAt,value
2022-07-29T00:00:27.133Z,19.52
2022-07-29T00:01:27.121Z,19.53
2022-07-29T00:02:27.192Z,19.53
2022-07-29T00:03:27.081Z,19.55
2022-07-29T00:04:27.222Z,19.56
2022-07-29T00:05:27.065Z,19.57
2022-07-29T00:06:27.064Z,19.59
2022-07-29T00:07:27.022Z,19.56
2022-07-29T00:08:27.023Z,19.53
2022-07-29T00:09:27.002Z,19.49
2022-07-29T00:10:26.984Z,19.48
2022-07-29T00:11:27.003Z,19.48
2022-07-29T00:12:27.123Z,19.48
2022-07-29T00:13:32.500Z,19.45
2022-07-29T00:14:27.942Z,19.39
2022-07-29T00:15:26.914Z,19.32
2022-07-29T00:16:26.951Z,19.27
2022-07-29T00:17:26.915Z,19.27
2022-07-29T00:18:26.886Z,19.26
2022-07-29T00:19:26.864Z,19.24
2022-07-29T00:20:26.865Z,19.23
2022-07-29T00:21:26.866Z,19.26
2022-07-29T00:22:26.866Z,19.27
2022-07-29T00:23:26.816Z,19.29
2022-07-29T00:24:26.805Z,19.34
2022-07-29T00:25:26.785Z,19.34
2022-07-29T00:26:26.766Z,19.37
2022-07-29T00:27:26.776Z,19.35
2022-07-29T00:28:26.757Z,19.37
2022-07-29T00:29:34.851Z,19.37
2022-07-29T00:30:27.724Z,19.37
2022-07-29T00:31:26.761Z,19.37
2022-07-29T00:32:26.715Z,19.38
2022-07-29T00:33:26.675Z,19.41
2022-07-29T00:34:26.669Z,19.44
2022-07-29T00:35:26.647Z,19.42
2022-07-29T00:36:26.656Z,19.42
2022-07-29T00:37:26.633Z,19.45
2022-07-29T00:38:26.614Z,19.48
2022-07-29T00:39:26.599Z,19.52
2022-07-29T00:40:26.587Z,19.53
2022-07-29T00:41:26.606Z,19.55
2022-07-29T00:42:26.571Z,19.56
2022-07-29T00:43:26.556Z,19.57
2022-07-29T00:44:26.539Z,19.59
2022-07-29T00:45:26.527Z,19.60
2022-07-29T00:46:26.604Z,19.60
2022-07-29T00:47:26.491Z,19.60
2022-07-29T00:48:26.492Z,19.63
2022-07-29T00:49:26.503Z,19.66
2022-07-29T00:50:26.458Z,19.71
2022-07-29T00:51:26.463Z,19.74
2022-07-29T00:52:26.431Z,19.77
2022-07-29T00:53:26.422Z,19.79
2022-07-29T00:54:26.400Z,19.81
2022-07-29T00:55:26.388Z,19.84
2022-07-29T00:56:26.389Z,19.87
2022-07-29T00:57:26.358Z,19.90
2022-07-29T00:58:26.338Z,19.92
2022-07-29T00:59:26.326Z,19.96
2022-07-29T01:00:27.389Z,20.00
2022-07-29T01:01:26.414Z,20.02
2022-07-29T01:02:26.397Z,20.03
2022-07-29T01:03:26.278Z,20.04
2022-07-29T01:04:26.271Z,20.08
2022-07-29T01:05:48.157Z,20.08
2022-07-29T01:06:27.261Z,20.08
2022-07-29T01:07:26.220Z,20.10
2022-07-29T01:08:26.233Z,20.08
2022-07-29T01:09:46.416Z,20.10
2022-07-29T01:10:27.193Z,20.08
2022-07-29T01:11:26.222Z,20.07
2022-07-29T01:12:26.161Z,20.04
2022-07-29T01:13:26.131Z,20.04
2022-07-29T01:14:26.132Z,20.04
2022-07-29T01:15:26.122Z,20.02
2022-07-29T01:16:26.218Z,20.04
2022-07-29T01:17:26.111Z,20.02
2022-07-29T01:18:26.085Z,20.03
2022-07-29T01:19:26.082Z,20.03
2022-07-29T01:20:31.626Z,20.02
2022-07-29T01:21:27.064Z,20.03
2022-07-29T01:22:26.022Z,20.02
2022-07-29T01:23:26.044Z,20.02
2022-07-29T01:24:26.013Z,20.02
2022-07-29T01:25:25.991Z,20.02
2022-07-29T01:26:26.004Z,20.02
2022-07-29T01:27:25.962Z,19.97
2022-07-29T01:28:25.952Z,19.93
2022-07-29T01:29:25.933Z,19.92
2022-07-29T01:30:25.935Z,19.90
2022-07-29T01:31:26.494Z,19.82
2022-07-29T01:32:29.003Z,19.79
2022-07-29T01:33:25.875Z,19.77
2022-07-29T01:34:25.874Z,19.75
2022-07-29T01:35:25.873Z,19.74
2022-07-29T01:36:25.834Z,19.71
2022-07-29T01:37:25.852Z,19.67
2022-07-29T01:38:25.834Z,19.67
2022-07-29T01:39:25.794Z,19.66
2022-07-29T01:40:25.802Z,19.62
2022-07-29T01:41:25.784Z,19.59
2022-07-29T01:42:25.807Z,19.59
2022-07-29T01:43:25.764Z,19.57
2022-07-29T01:44:25.745Z,19.55
2022-07-29T01:45:25.726Z,19.52
2022-07-29T01:46:25.844Z,19.48
2022-07-29T01:47:25.702Z,19.45
2022-07-29T01:48:25.687Z,19.44
2022-07-29T01:49:25.733Z,19.41
2022-07-29T01:50:25.656Z,19.41
2022-07-29T01:51:25.658Z,19.37
2022-07-29T01:52:25.630Z,19.35
2022-07-29T01:53:25.618Z,19.34
2022-07-29T01:54:25.598Z,19.34
2022-07-29T01:55:25.577Z,19.32
2022-07-29T01:56:25.577Z,19.30
2022-07-29T01:57:25.578Z,19.29
2022-07-29T01:58:25.569Z,19.24
2022-07-29T01:59:25.538Z,19.20
2022-07-29T02:00:25.543Z,19.17
2022-07-29T02:01:25.550Z,19.16
2022-07-29T02:02:25.508Z,19.09
2022-07-29T02:03:25.484Z,19.05
2022-07-29T02:04:29.758Z,18.98
2022-07-29T02:05:25.528Z,18.94
2022-07-29T02:06:25.440Z,18.89
2022-07-29T02:07:25.439Z,18.91
2022-07-29T02:08:25.410Z,18.88
2022-07-29T02:09:25.407Z,18.88
2022-07-29T02:10:25.775Z,18.86
2022-07-29T02:11:25.381Z,18.86
2022-07-29T02:12:25.381Z,18.86
2022-07-29T02:13:25.339Z,18.85
2022-07-29T02:14:25.331Z,18.85
2022-07-29T02:15:25.336Z,18.86
2022-07-29T02:16:25.388Z,18.86
2022-07-29T02:17:25.310Z,18.89
2022-07-29T02:18:25.270Z,18.91
2022-07-29T02:19:25.271Z,18.92
2022-07-29T02:20:25.241Z,18.92
2022-07-29T02:21:25.230Z,18.94
2022-07-29T02:22:25.230Z,18.94
2022-07-29T02:23:25.201Z,18.92
2022-07-29T02:24:25.190Z,18.91
2022-07-29T02:25:25.180Z,18.85
2022-07-29T02:26:26.162Z,18.83
2022-07-29T02:27:25.171Z,18.82
2022-07-29T02:28:25.131Z,18.81
2022-07-29T02:29:25.121Z,18.79
2022-07-29T02:30:25.111Z,18.76
2022-07-29T02:31:25.164Z,18.73
2022-07-29T02:32:25.101Z,18.71
2022-07-29T02:33:25.076Z,18.70
2022-07-29T02:34:25.062Z,18.70
2022-07-29T02:35:25.041Z,18.67
2022-07-29T02:36:25.031Z,18.63
2022-07-29T02:37:25.078Z,18.58
2022-07-29T02:38:25.005Z,18.55
2022-07-29T02:39:24.992Z,18.52
2022-07-29T02:40:24.973Z,18.51
2022-07-29T02:41:24.962Z,18.49
2022-07-29T02:42:24.962Z,18.48
2022-07-29T02:43:24.944Z,18.46
2022-07-29T02:44:24.931Z,18.42
2022-07-29T02:45:24.912Z,18.41
2022-07-29T02:46:28.422Z,18.39
2022-07-29T02:47:24.905Z,18.39
2022-07-29T02:48:24.863Z,18.34
2022-07-29T02:49:24.947Z,18.31
2022-07-29T02:50:24.835Z,18.28
2022-07-29T02:51:42.613Z,18.26
2022-07-29T02:52:25.823Z,18.24
2022-07-29T02:53:24.808Z,18.21
2022-07-29T02:54:24.774Z,18.18
2022-07-29T02:55:24.772Z,18.18
2022-07-29T02:56:24.764Z,18.13
2022-07-29T02:57:24.764Z,18.08
2022-07-29T02:58:24.732Z,18.03
2022-07-29T02:59:24.724Z,17.95
2022-07-29T03:00:24.734Z,17.90
2022-07-29T03:01:24.716Z,17.86
2022-07-29T03:02:24.693Z,17.84
2022-07-29T03:03:24.673Z,17.80
2022-07-29T03:04:24.712Z,17.80
2022-07-29T03:05:24.657Z,17.79
2022-07-29T03:06:28.251Z,17.78
2022-07-29T03:07:25.640Z,17.76
2022-07-29T03:08:24.595Z,17.75
2022-07-29T03:09:24.585Z,17.73
2022-07-29T03:10:24.581Z,17.72
2022-07-29T03:11:41.442Z,17.68
2022-07-29T03:12:25.555Z,17.66
2022-07-29T03:13:24.602Z,17.63
2022-07-29T03:14:24.516Z,17.57
2022-07-29T03:15:24.752Z,17.56
2022-07-29T03:16:24.504Z,17.56
2022-07-29T03:17:24.497Z,17.54
2022-07-29T03:18:24.462Z,17.50
2022-07-29T03:19:24.456Z,17.49
2022-07-29T03:20:24.437Z,17.44
2022-07-29T03:21:24.423Z,17.42
2022-07-29T03:22:24.416Z,17.41
2022-07-29T03:23:24.390Z,17.37
2022-07-29T03:24:24.393Z,17.32
2022-07-29T03:25:24.374Z,17.30
2022-07-29T03:26:24.347Z,17.30
2022-07-29T03:27:24.365Z,17.30
2022-07-29T03:28:24.327Z,17.27
2022-07-29T03:29:24.327Z,17.24
2022-07-29T03:30:24.338Z,17.20
2022-07-29T03:31:24.352Z,17.17
2022-07-29T03:32:25.337Z,17.16
2022-07-29T03:33:24.259Z,17.19
2022-07-29T03:34:24.255Z,17.19
2022-07-29T03:35:24.240Z,17.20
2022-07-29T03:36:24.218Z,17.20
2022-07-29T03:37:24.228Z,17.16
2022-07-29T03:38:24.198Z,17.10
2022-07-29T03:39:24.180Z,17.07
2022-07-29T03:40:24.178Z,17.01
2022-07-29T03:41:24.166Z,16.97
2022-07-29T03:42:24.179Z,16.92
2022-07-29T03:43:24.131Z,16.87
2022-07-29T03:44:24.118Z,16.84
2022-07-29T03:45:24.112Z,16.86
2022-07-29T03:46:24.175Z,16.87
2022-07-29T03:47:43.434Z,16.92
2022-07-29T03:48:25.061Z,16.94
2022-07-29T03:49:24.090Z,16.94
2022-07-29T03:50:24.042Z,16.98
2022-07-29T03:51:33.344Z,16.99
2022-07-29T03:52:25.047Z,17.01
2022-07-29T03:53:24.010Z,17.02
2022-07-29T03:54:24.000Z,17.02
2022-07-29T03:55:23.978Z,17.05
2022-07-29T03:56:23.958Z,17.09
2022-07-29T03:57:23.950Z,17.12
2022-07-29T03:58:23.988Z,17.10
2022-07-29T03:59:23.933Z,17.12
2022-07-29T04:00:23.925Z,17.13
2022-07-29T04:01:23.981Z,17.12
2022-07-29T04:02:28.701Z,17.10
2022-07-29T04:03:24.988Z,17.09
2022-07-29T04:04:23.863Z,17.09
2022-07-29T04:05:23.841Z,17.07
2022-07-29T04:06:23.852Z,17.04
2022-07-29T04:07:23.874Z,17.02
2022-07-29T04:08:23.820Z,16.98
2022-07-29T04:09:23.801Z,16.95
2022-07-29T04:10:26.895Z,16.89
2022-07-29T04:11:24.782Z,16.87
2022-07-29T04:12:23.751Z,16.87
2022-07-29T04:13:23.761Z,16.86
2022-07-29T04:14:23.733Z,16.87
2022-07-29T04:15:23.723Z,16.86
2022-07-29T04:16:23.757Z,16.84
2022-07-29T04:17:23.693Z,16.83
2022-07-29T04:18:23.702Z,16.84
2022-07-29T04:19:23.690Z,16.84
2022-07-29T04:20:23.661Z,16.84
2022-07-29T04:21:23.663Z,16.86
2022-07-29T04:22:23.631Z,16.86
2022-07-29T04:23:23.632Z,16.86
2022-07-29T04:24:23.593Z,16.84
2022-07-29T04:25:23.583Z,16.82
2022-07-29T04:26:23.573Z,16.80
2022-07-29T04:27:23.575Z,16.79
2022-07-29T04:28:23.564Z,16.76
2022-07-29T04:29:23.535Z,16.72
2022-07-29T04:30:23.543Z,16.69
2022-07-29T04:31:25.891Z,16.66
2022-07-29T04:32:23.483Z,16.66
2022-07-29T04:33:25.042Z,16.65
2022-07-29T04:34:23.465Z,16.65
2022-07-29T04:35:23.466Z,16.65
2022-07-29T04:36:29.502Z,16.66
2022-07-29T04:37:24.646Z,16.65
2022-07-29T04:38:23.454Z,16.68
2022-07-29T04:39:23.452Z,16.69
2022-07-29T04:40:23.384Z,16.72
2022-07-29T04:41:23.384Z,16.69
2022-07-29T04:42:27.407Z,16.66
2022-07-29T04:43:23.523Z,16.65
2022-07-29T04:44:28.471Z,16.66
2022-07-29T04:45:24.333Z,16.64
2022-07-29T04:46:23.353Z,16.66
2022-07-29T04:47:23.294Z,16.69
2022-07-29T04:48:28.508Z,16.73
2022-07-29T04:49:24.356Z,16.72
2022-07-29T04:50:23.245Z,16.72
2022-07-29T04:51:23.244Z,16.74
2022-07-29T04:52:23.253Z,16.76
2022-07-29T04:53:23.222Z,16.79
2022-07-29T04:54:23.223Z,16.83
2022-07-29T04:55:23.186Z,16.86
2022-07-29T04:56:23.178Z,16.89
2022-07-29T04:57:23.169Z,16.92
2022-07-29T04:58:23.157Z,16.94
2022-07-29T04:59:23.187Z,16.94
2022-07-29T05:00:23.127Z,16.95
2022-07-29T05:01:24.241Z,16.95
2022-07-29T05:02:23.134Z,17.16
2022-07-29T05:03:23.076Z,17.53
2022-07-29T05:04:23.105Z,17.86
2022-07-29T05:05:23.096Z,18.16
2022-07-29T05:06:23.046Z,18.45
2022-07-29T05:07:23.035Z,18.64
2022-07-29T05:08:23.008Z,18.78
2022-07-29T05:09:24.494Z,18.82
2022-07-29T05:10:23.502Z,18.86
2022-07-29T05:11:27.233Z,18.92
2022-07-29T05:12:23.982Z,19.01
2022-07-29T05:13:22.959Z,19.01
2022-07-29T05:14:22.947Z,19.01
2022-07-29T05:15:23.045Z,18.96
2022-07-29T05:16:22.950Z,18.89
2022-07-29T05:17:22.899Z,18.94
2022-07-29T05:18:25.917Z,19.05
2022-07-29T05:19:22.920Z,19.19
2022-07-29T05:20:22.858Z,19.35
2022-07-29T05:21:22.849Z,19.45
2022-07-29T05:22:22.829Z,19.57
2022-07-29T05:23:22.820Z,19.64
2022-07-29T05:24:22.830Z,19.67
2022-07-29T05:25:22.791Z,19.64
2022-07-29T05:26:22.799Z,19.60
2022-07-29T05:27:22.779Z,19.62
2022-07-29T05:28:22.809Z,19.60
2022-07-29T05:29:42.703Z,19.60
2022-07-29T05:30:23.818Z,19.66
2022-07-29T05:31:22.837Z,19.72
2022-07-29T05:32:22.693Z,19.78
2022-07-29T05:33:35.248Z,19.81
2022-07-29T05:34:23.693Z,19.87
2022-07-29T05:35:22.650Z,19.92
2022-07-29T05:36:22.662Z,19.93
2022-07-29T05:37:22.629Z,19.92
2022-07-29T05:38:22.631Z,19.92
2022-07-29T05:39:22.622Z,19.94
2022-07-29T05:40:23.578Z,19.90
2022-07-29T05:41:22.593Z,19.87
2022-07-29T05:42:23.611Z,19.92
2022-07-29T05:43:22.695Z,19.94
2022-07-29T05:44:25.368Z,19.89
2022-07-29T05:45:22.522Z,19.90
2022-07-29T05:46:22.536Z,19.94
2022-07-29T05:47:22.491Z,19.99
2022-07-29T05:48:22.485Z,20.08
2022-07-29T05:49:24.229Z,20.15
2022-07-29T05:50:23.813Z,20.21
2022-07-29T05:51:22.451Z,20.30
2022-07-29T05:52:22.433Z,20.34
2022-07-29T05:53:22.633Z,20.39
2022-07-29T05:54:22.403Z,20.44
2022-07-29T05:55:22.392Z,20.48
2022-07-29T05:56:22.371Z,20.50
2022-07-29T05:57:22.744Z,20.50
2022-07-29T05:58:22.342Z,20.52
2022-07-29T05:59:24.106Z,20.53
2022-07-29T06:00:22.324Z,20.53
2022-07-29T06:01:22.352Z,20.56
2022-07-29T06:02:22.290Z,20.59
2022-07-29T06:03:22.374Z,20.60
2022-07-29T06:04:22.337Z,20.63
2022-07-29T06:05:22.263Z,20.60
2022-07-29T06:06:22.244Z,20.58
2022-07-29T06:07:22.232Z,20.56
2022-07-29T06:08:22.204Z,20.59
2022-07-29T06:09:22.223Z,20.59
2022-07-29T06:10:26.176Z,20.63
2022-07-29T06:11:23.175Z,20.66
2022-07-29T06:12:22.159Z,20.70
2022-07-29T06:13:22.152Z,20.71
2022-07-29T06:14:22.145Z,20.66
2022-07-29T06:15:22.114Z,20.59
2022-07-29T06:16:28.910Z,20.58
2022-07-29T06:17:23.085Z,20.56
2022-07-29T06:18:22.083Z,20.58
2022-07-29T06:19:22.085Z,20.56
2022-07-29T06:20:26.867Z,20.52
2022-07-29T06:21:23.048Z,20.50
2022-07-29T06:22:22.016Z,20.48
2022-07-29T06:23:22.094Z,20.46
2022-07-29T06:24:22.068Z,20.44
2022-07-29T06:25:22.001Z,20.44
2022-07-29T06:26:30.741Z,20.44
2022-07-29T06:27:22.957Z,20.49
2022-07-29T06:28:21.945Z,20.50
2022-07-29T06:29:21.947Z,20.53
2022-07-29T06:30:22.167Z,20.55
2022-07-29T06:31:21.953Z,20.56
2022-07-29T06:32:22.901Z,20.60
2022-07-29T06:33:22.883Z,20.66
2022-07-29T06:34:21.877Z,20.73
2022-07-29T06:35:38.611Z,20.80
2022-07-29T06:36:22.927Z,20.89
2022-07-29T06:37:21.826Z,20.90
2022-07-29T06:38:33.833Z,20.95
2022-07-29T06:39:22.861Z,21.01
2022-07-29T06:40:21.789Z,21.07
2022-07-29T06:41:21.765Z,21.11
2022-07-29T06:42:21.758Z,21.11
2022-07-29T06:43:21.747Z,21.14
2022-07-29T06:44:21.740Z,21.17
2022-07-29T06:45:21.709Z,21.20
2022-07-29T06:46:28.890Z,21.22
2022-07-29T06:47:21.673Z,21.22
2022-07-29T06:48:21.683Z,21.19
2022-07-29T06:49:21.714Z,21.15
2022-07-29T06:50:21.652Z,21.08
2022-07-29T06:51:22.575Z,21.01
2022-07-29T06:52:21.620Z,20.95
2022-07-29T06:53:21.614Z,20.89
2022-07-29T06:54:21.622Z,20.83
2022-07-29T06:55:25.352Z,20.83
2022-07-29T06:56:21.574Z,20.80
2022-07-29T06:57:21.544Z,20.77
2022-07-29T06:58:21.545Z,20.74
2022-07-29T06:59:28.342Z,20.70
2022-07-29T07:00:22.523Z,20.70
2022-07-29T07:01:21.579Z,20.67
2022-07-29T07:02:21.555Z,20.64
2022-07-29T07:03:21.465Z,20.64
2022-07-29T07:04:21.680Z,20.63
2022-07-29T07:05:21.442Z,20.58
2022-07-29T07:06:21.434Z,20.58
2022-07-29T07:07:21.404Z,20.55
2022-07-29T07:08:21.415Z,20.53
2022-07-29T07:09:21.404Z,20.55
2022-07-29T07:10:21.376Z,20.53
2022-07-29T07:11:21.362Z,20.55
2022-07-29T07:12:21.364Z,20.58
2022-07-29T07:13:21.335Z,20.58
2022-07-29T07:14:21.656Z,20.60
2022-07-29T07:15:21.305Z,20.60
2022-07-29T07:16:21.351Z,20.64
2022-07-29T07:17:21.293Z,20.67
2022-07-29T07:18:21.273Z,20.66
2022-07-29T07:19:21.304Z,20.70
2022-07-29T07:20:21.266Z,20.71
2022-07-29T07:21:21.256Z,20.75
2022-07-29T07:22:21.224Z,20.77
2022-07-29T07:23:21.196Z,20.78
2022-07-29T07:24:21.217Z,20.82
2022-07-29T07:25:21.204Z,20.86
2022-07-29T07:26:21.168Z,20.89
2022-07-29T07:27:21.147Z,20.92
2022-07-29T07:28:24.518Z,20.92
2022-07-29T07:29:21.116Z,20.93
2022-07-29T07:30:21.157Z,20.95
2022-07-29T07:31:21.210Z,21.00
2022-07-29T07:32:21.122Z,21.03
2022-07-29T07:33:21.125Z,21.08
2022-07-29T07:34:28.278Z,21.11
2022-07-29T07:35:22.068Z,21.14
2022-07-29T07:36:21.037Z,21.17
2022-07-29T07:37:21.021Z,21.19
2022-07-29T07:38:21.080Z,21.19
2022-07-29T07:39:20.988Z,21.20
2022-07-29T07:40:20.996Z,21.20
2022-07-29T07:41:20.969Z,21.23
2022-07-29T07:42:20.949Z,21.25
2022-07-29T07:43:20.946Z,21.26
2022-07-29T07:44:21.249Z,21.28
2022-07-29T07:45:20.929Z,21.30
2022-07-29T07:46:20.995Z,21.32
2022-07-29T07:47:20.889Z,21.32
2022-07-29T07:48:20.920Z,21.33
2022-07-29T07:49:20.924Z,21.35
2022-07-29T07:50:20.869Z,21.40
2022-07-29T07:51:20.821Z,21.44
2022-07-29T07:52:20.850Z,21.47
2022-07-29T07:53:20.810Z,21.50
2022-07-29T07:54:21.113Z,21.53
2022-07-29T07:55:20.800Z,21.56
2022-07-29T07:56:20.781Z,21.58
2022-07-29T07:57:20.752Z,21.59
2022-07-29T07:58:20.741Z,21.62
2022-07-29T07:59:20.729Z,21.63
2022-07-29T08:00:23.078Z,21.65
2022-07-29T08:01:20.744Z,21.69
2022-07-29T08:02:20.857Z,21.70
2022-07-29T08:03:20.670Z,21.72
2022-07-29T08:04:26.566Z,21.72
2022-07-29T08:05:21.683Z,21.74
2022-07-29T08:06:20.654Z,21.75
2022-07-29T08:07:20.613Z,21.77
2022-07-29T08:08:20.614Z,21.78
2022-07-29T08:09:29.298Z,21.81
2022-07-29T08:10:21.602Z,21.84
2022-07-29T08:11:20.570Z,21.88
2022-07-29T08:12:20.562Z,21.91
2022-07-29T08:13:20.535Z,21.94
2022-07-29T08:14:20.531Z,21.96
2022-07-29T08:15:20.531Z,21.99
2022-07-29T08:16:20.619Z,22.00
2022-07-29T08:17:20.491Z,22.00
2022-07-29T08:18:20.485Z,22.00
2022-07-29T08:19:20.457Z,22.00
2022-07-29T08:20:20.576Z,22.03
2022-07-29T08:21:20.508Z,22.03
2022-07-29T08:22:20.411Z,22.06
2022-07-29T08:23:20.405Z,22.06
2022-07-29T08:24:20.394Z,22.07
2022-07-29T08:25:20.445Z,22.08
2022-07-29T08:26:20.367Z,22.10
2022-07-29T08:27:41.907Z,22.08
2022-07-29T08:28:21.343Z,22.10
2022-07-29T08:29:20.334Z,22.10
2022-07-29T08:30:20.374Z,22.10
2022-07-29T08:31:20.358Z,22.12
2022-07-29T08:32:43.478Z,22.12
2022-07-29T08:33:21.285Z,22.12
2022-07-29T08:34:21.565Z,22.14
2022-07-29T08:35:21.258Z,22.12
2022-07-29T08:36:20.244Z,22.15
2022-07-29T08:37:20.234Z,22.16
2022-07-29T08:38:20.225Z,22.16
2022-07-29T08:39:20.196Z,22.19
2022-07-29T08:40:20.300Z,22.19
2022-07-29T08:41:21.168Z,22.21
2022-07-29T08:42:20.157Z,22.22
2022-07-29T08:43:20.146Z,22.23
2022-07-29T08:44:22.442Z,22.26
2022-07-29T08:45:21.139Z,22.28
2022-07-29T08:46:20.125Z,22.30
2022-07-29T08:47:20.086Z,22.31
2022-07-29T08:48:20.081Z,22.33
2022-07-29T08:49:20.125Z,22.36
2022-07-29T08:50:20.047Z,22.37
2022-07-29T08:51:20.061Z,22.38
2022-07-29T08:52:20.028Z,22.41
2022-07-29T08:53:20.006Z,22.41
2022-07-29T08:54:20.006Z,22.40
2022-07-29T08:55:21.490Z,22.40
2022-07-29T08:56:20.015Z,22.40
2022-07-29T08:57:19.960Z,22.43
2022-07-29T08:58:22.961Z,22.43
2022-07-29T08:59:19.954Z,22.44
2022-07-29T09:00:20.034Z,22.46
2022-07-29T09:01:19.949Z,22.49
2022-07-29T09:02:19.899Z,22.51
2022-07-29T09:03:19.960Z,22.52
2022-07-29T09:04:19.879Z,22.51
2022-07-29T09:05:19.841Z,22.53
2022-07-29T09:06:19.859Z,22.52
2022-07-29T09:07:19.843Z,22.53
2022-07-29T09:08:19.821Z,22.58
2022-07-29T09:09:19.799Z,22.62
2022-07-29T09:10:19.814Z,22.68
2022-07-29T09:11:19.791Z,22.74
2022-07-29T09:12:28.766Z,22.80
2022-07-29T09:13:20.750Z,22.83
2022-07-29T09:14:19.741Z,22.86
2022-07-29T09:15:19.740Z,22.91
2022-07-29T09:16:43.889Z,22.96
2022-07-29T09:17:20.790Z,23.01
2022-07-29T09:18:30.513Z,23.06
2022-07-29T09:19:20.664Z,23.10
2022-07-29T09:20:19.673Z,23.10
2022-07-29T09:21:19.734Z,23.10
2022-07-29T09:22:19.632Z,23.13
2022-07-29T09:23:22.867Z,23.14
2022-07-29T09:24:19.603Z,23.13
2022-07-29T09:25:19.584Z,23.14
2022-07-29T09:26:19.653Z,23.17
2022-07-29T09:27:19.576Z,23.17
2022-07-29T09:28:19.835Z,23.20
2022-07-29T09:29:19.535Z,23.21
2022-07-29T09:30:28.876Z,23.23
2022-07-29T09:31:20.623Z,23.21
2022-07-29T09:32:19.495Z,23.23
2022-07-29T09:33:19.485Z,23.20
2022-07-29T09:34:19.462Z,23.21
2022-07-29T09:35:19.579Z,23.23
2022-07-29T09:36:19.453Z,23.26
2022-07-29T09:37:19.428Z,23.32
2022-07-29T09:38:19.415Z,23.33
2022-07-29T09:39:19.465Z,23.37
2022-07-29T09:40:19.394Z,23.37
2022-07-29T09:41:19.383Z,23.39
2022-07-29T09:42:19.364Z,23.44
2022-07-29T09:43:19.345Z,23.47
2022-07-29T09:44:19.361Z,23.48
2022-07-29T09:45:19.314Z,23.51
2022-07-29T09:46:19.356Z,23.56
2022-07-29T09:47:19.294Z,23.63
2022-07-29T09:48:19.294Z,23.67
2022-07-29T09:49:19.361Z,23.73
2022-07-29T09:50:20.649Z,23.79
2022-07-29T09:51:21.331Z,23.88
2022-07-29T09:52:19.243Z,23.92
2022-07-29T09:53:19.217Z,23.94
2022-07-29T09:54:19.208Z,23.95
2022-07-29T09:55:19.963Z,23.95
2022-07-29T09:56:19.209Z,23.99
2022-07-29T09:57:19.169Z,23.96
2022-07-29T09:58:19.159Z,23.94
2022-07-29T09:59:19.137Z,23.94
2022-07-29T10:00:19.140Z,23.94
2022-07-29T10:01:19.172Z,23.95
2022-07-29T10:02:23.795Z,24.00
2022-07-29T10:03:20.234Z,24.03
2022-07-29T10:04:19.081Z,24.03
2022-07-29T10:05:19.057Z,24.06
2022-07-29T10:06:19.094Z,24.14
2022-07-29T10:07:19.010Z,24.22
2022-07-29T10:08:19.020Z,24.29
2022-07-29T10:09:19.011Z,24.32
2022-07-29T10:10:19.002Z,24.37
2022-07-29T10:11:18.991Z,24.40
2022-07-29T10:12:18.974Z,24.44
2022-07-29T10:13:18.951Z,24.48
2022-07-29T10:14:18.938Z,24.50
2022-07-29T10:15:18.951Z,24.53
2022-07-29T10:16:19.121Z,24.48
2022-07-29T10:17:18.901Z,24.48
2022-07-29T10:18:18.889Z,24.48
2022-07-29T10:19:18.864Z,24.47
2022-07-29T10:20:18.860Z,24.48
2022-07-29T10:21:34.973Z,24.46
2022-07-29T10:22:43.561Z,24.44
2022-07-29T10:23:19.826Z,24.41
2022-07-29T10:24:18.811Z,24.40
2022-07-29T10:25:18.793Z,24.38
2022-07-29T10:26:18.806Z,24.41
2022-07-29T10:27:18.852Z,24.41
2022-07-29T10:28:18.766Z,24.46
2022-07-29T10:29:18.722Z,24.48
2022-07-29T10:30:18.749Z,24.51
2022-07-29T10:31:18.810Z,24.56
2022-07-29T10:32:18.713Z,24.65
2022-07-29T10:33:18.698Z,24.75
2022-07-29T10:34:18.701Z,24.81
2022-07-29T10:35:18.677Z,24.82
2022-07-29T10:36:18.693Z,24.84
2022-07-29T10:37:18.707Z,24.86
2022-07-29T10:38:18.651Z,24.88
2022-07-29T10:39:18.655Z,24.89
2022-07-29T10:40:18.596Z,24.94
2022-07-29T10:41:19.677Z,24.94
2022-07-29T10:42:19.901Z,24.92
2022-07-29T10:43:18.568Z,24.85
2022-07-29T10:44:19.393Z,24.88
2022-07-29T10:45:18.526Z,24.94
2022-07-29T10:46:18.601Z,24.93
2022-07-29T10:47:18.552Z,24.99
2022-07-29T10:48:19.215Z,25.06
2022-07-29T10:49:18.541Z,25.11
2022-07-29T10:50:18.527Z,25.16
2022-07-29T10:51:18.466Z,25.24
2022-07-29T10:52:18.447Z,25.30
2022-07-29T10:53:18.418Z,25.26
2022-07-29T10:54:18.411Z,25.25
2022-07-29T10:55:18.409Z,25.29
2022-07-29T10:56:18.379Z,25.33
2022-07-29T10:57:18.401Z,25.29
2022-07-29T10:58:19.023Z,25.25
2022-07-29T10:59:18.351Z,25.25
2022-07-29T11:00:18.348Z,25.26
2022-07-29T11:01:18.329Z,25.25
2022-07-29T11:02:41.474Z,25.22
2022-07-29T11:03:19.334Z,25.21
2022-07-29T11:04:18.312Z,25.19
2022-07-29T11:05:18.271Z,25.19
2022-07-29T11:06:26.364Z,25.24
2022-07-29T11:07:19.251Z,25.36
2022-07-29T11:08:19.523Z,25.41
2022-07-29T11:09:18.210Z,25.41
2022-07-29T11:10:18.200Z,25.44
2022-07-29T11:11:18.221Z,25.44
2022-07-29T11:12:18.190Z,25.44
2022-07-29T11:13:18.162Z,25.40
2022-07-29T11:14:18.149Z,25.36
2022-07-29T11:15:18.151Z,25.41
2022-07-29T11:16:18.121Z,25.46
2022-07-29T11:17:18.150Z,25.41
2022-07-29T11:18:18.109Z,25.43
2022-07-29T11:19:21.525Z,25.49
2022-07-29T11:20:19.073Z,25.56
2022-07-29T11:21:18.062Z,25.67
2022-07-29T11:22:19.053Z,25.71
2022-07-29T11:23:19.032Z,25.81
2022-07-29T11:24:18.588Z,25.89
2022-07-29T11:25:19.016Z,25.92
2022-07-29T11:26:19.128Z,25.99
2022-07-29T11:27:19.816Z,26.08
2022-07-29T11:29:18.954Z,26.19
2022-07-29T11:30:17.933Z,26.19
2022-07-29T11:31:17.935Z,26.22
2022-07-29T11:32:18.420Z,26.24
2022-07-29T11:33:18.902Z,26.26
2022-07-29T11:34:18.886Z,26.27
2022-07-29T11:35:18.891Z,26.33
2022-07-29T11:36:17.966Z,26.39
2022-07-29T11:37:18.023Z,26.46
2022-07-29T11:38:17.855Z,26.49
2022-07-29T11:39:17.857Z,26.55
2022-07-29T11:40:18.279Z,26.61
2022-07-29T11:41:17.806Z,26.67
2022-07-29T11:42:17.786Z,26.74
2022-07-29T11:43:18.786Z,26.67
2022-07-29T11:44:17.991Z,26.63
2022-07-29T11:45:42.197Z,26.59
2022-07-29T11:46:18.736Z,26.55
2022-07-29T11:47:18.777Z,26.53
2022-07-29T11:48:30.009Z,26.53
2022-07-29T11:49:18.748Z,26.56
2022-07-29T11:50:17.695Z,26.59
2022-07-29T11:51:17.717Z,26.52
2022-07-29T11:52:17.658Z,26.59
2022-07-29T11:53:17.681Z,26.64
2022-07-29T11:54:17.627Z,26.67
2022-07-29T11:55:17.618Z,26.70
2022-07-29T11:56:17.607Z,26.78
2022-07-29T11:57:17.589Z,26.83
2022-07-29T11:58:17.599Z,26.86
2022-07-29T11:59:17.570Z,26.91
2022-07-29T12:00:18.673Z,27.00
2022-07-29T12:01:17.549Z,27.04
2022-07-29T12:02:37.389Z,27.00
2022-07-29T12:03:18.557Z,27.01
2022-07-29T12:04:17.506Z,27.01
2022-07-29T12:05:35.825Z,27.01
2022-07-29T12:06:20.967Z,27.05
2022-07-29T12:07:17.481Z,27.13
2022-07-29T12:08:17.480Z,27.20
2022-07-29T12:09:17.441Z,27.33
2022-07-29T12:10:20.201Z,27.40
2022-07-29T12:11:20.863Z,27.43
2022-07-29T12:12:17.409Z,27.47
2022-07-29T12:13:17.431Z,27.52
2022-07-29T12:14:17.371Z,27.45
2022-07-29T12:15:17.383Z,27.50
2022-07-29T12:16:29.395Z,27.57
2022-07-29T12:17:18.361Z,27.64
2022-07-29T12:18:18.428Z,27.75
2022-07-29T12:19:17.328Z,27.79
2022-07-29T12:20:17.300Z,27.83
2022-07-29T12:21:17.292Z,27.83
2022-07-29T12:22:17.367Z,27.90
2022-07-29T12:23:17.378Z,27.95
2022-07-29T12:24:17.245Z,27.97
2022-07-29T12:25:32.299Z,28.03
2022-07-29T12:26:25.638Z,28.09
2022-07-29T12:27:18.222Z,28.15
2022-07-29T12:28:18.598Z,28.13
2022-07-29T12:29:20.319Z,28.12
2022-07-29T12:30:18.245Z,28.15
2022-07-29T12:31:41.876Z,28.13
2022-07-29T12:32:19.661Z,28.10
2022-07-29T12:33:17.162Z,28.08
2022-07-29T12:34:17.132Z,28.03
2022-07-29T12:35:17.137Z,27.95
2022-07-29T12:36:17.881Z,27.88
2022-07-29T12:37:17.105Z,27.91
2022-07-29T12:38:17.068Z,27.91
2022-07-29T12:39:17.069Z,27.94
2022-07-29T12:40:17.049Z,27.98
2022-07-29T12:41:17.035Z,27.94
2022-07-29T12:42:18.518Z,27.90
2022-07-29T12:43:16.999Z,27.91
2022-07-29T12:44:17.033Z,27.93
2022-07-29T12:45:16.978Z,28.03
2022-07-29T12:46:16.985Z,28.09
2022-07-29T12:47:16.960Z,28.13
2022-07-29T12:48:16.928Z,28.08
2022-07-29T12:49:26.255Z,28.01
2022-07-29T12:50:16.871Z,28.03
2022-07-29T12:51:16.879Z,28.09
2022-07-29T12:52:16.842Z,28.13
2022-07-29T12:53:17.754Z,28.19